createdAt,value
2018-06-15T00:02:18.950Z,14.37
2018-06-15T00:04:47.002Z,11.47
2018-06-15T00:07:15.127Z,8.57
2018-06-15T00:09:43.194Z,10.93
2018-06-15T00:12:11.274Z,13.00
2018-06-15T00:14:39.471Z,11.20
2018-06-15T00:17:07.619Z,12.87
2018-06-15T00:19:35.696Z,10.80
2018-06-15T00:22:03.811Z,11.20
2018-06-15T00:24:31.875Z,11.40
2018-06-15T00:26:59.990Z,9.73
2018-06-15T00:29:28.083Z,9.13
2018-06-15T00:31:56.153Z,9.73
2018-06-15T00:34:24.235Z,7.57
2018-06-15T00:36:52.296Z,9.77
2018-06-15T00:39:20.375Z,7.97
2018-06-15T00:41:48.469Z,7.23
2018-06-15T00:44:16.538Z,8.83
2018-06-15T00:46:44.582Z,6.50
2018-06-15T00:49:13.126Z,7.57
2018-06-15T00:51:41.198Z,7.00
2018-06-15T00:54:09.273Z,8.20
2018-06-15T00:56:48.947Z,9.60
2018-06-15T00:59:17.007Z,6.93
2018-06-15T01:01:45.056Z,9.40
2018-06-15T01:04:13.154Z,9.43
2018-06-15T01:06:41.218Z,9.80
2018-06-15T01:09:09.596Z,10.73
2018-06-15T01:11:37.827Z,11.77
2018-06-15T01:14:05.906Z,11.53
2018-06-15T01:16:34.023Z,11.17
2018-06-15T01:19:02.457Z,10.70
2018-06-15T01:21:30.719Z,12.30
2018-06-15T01:23:58.994Z,14.80
2018-06-15T01:26:27.065Z,11.33
2018-06-15T01:28:55.238Z,12.73
2018-06-15T01:31:23.310Z,13.73
2018-06-15T01:33:51.719Z,11.23
2018-06-15T01:36:19.834Z,11.57
2018-06-15T01:38:47.915Z,11.57
2018-06-15T01:41:16.031Z,10.87
2018-06-15T01:43:43.908Z,11.73
2018-06-15T01:46:11.969Z,11.57
2018-06-15T01:48:40.070Z,12.17
2018-06-15T01:51:08.143Z,11.20
2018-06-15T01:53:36.195Z,10.07
2018-06-15T01:56:04.250Z,13.37
2018-06-15T01:58:32.115Z,10.20
2018-06-15T02:01:00.248Z,11.70
2018-06-15T02:03:28.315Z,12.30
2018-06-15T02:05:56.383Z,10.17
2018-06-15T02:08:24.435Z,12.77
2018-06-15T02:10:52.504Z,11.90
2018-06-15T02:13:20.654Z,13.43
2018-06-15T02:15:48.775Z,11.47
2018-06-15T02:18:16.854Z,11.07
2018-06-15T02:20:44.968Z,11.37
2018-06-15T02:23:13.032Z,10.77
2018-06-15T02:25:41.102Z,12.33
2018-06-15T02:28:09.148Z,11.63
2018-06-15T02:30:37.222Z,10.53
2018-06-15T02:33:05.293Z,12.13
2018-06-15T02:35:33.482Z,11.37
2018-06-15T02:38:01.569Z,14.07
2018-06-15T02:40:29.665Z,13.60
2018-06-15T02:42:57.563Z,11.33
2018-06-15T02:45:25.712Z,11.37
2018-06-15T02:47:53.731Z,11.60
2018-06-15T02:50:21.841Z,11.67
2018-06-15T02:52:49.959Z,11.73
2018-06-15T02:55:18.059Z,11.43
2018-06-15T02:57:46.136Z,12.13
2018-06-15T03:00:14.295Z,11.63
2018-06-15T03:02:42.400Z,12.07
2018-06-15T03:05:10.536Z,12.00
2018-06-15T03:07:38.671Z,12.77
2018-06-15T03:10:06.779Z,14.83
2018-06-15T03:12:34.853Z,14.00
2018-06-15T03:15:02.960Z,13.80
2018-06-15T03:17:31.024Z,14.73
2018-06-15T03:19:59.087Z,13.57
2018-06-15T03:22:27.163Z,13.13
2018-06-15T03:24:55.243Z,15.80
2018-06-15T03:27:23.333Z,13.90
2018-06-15T03:29:51.416Z,16.33
2018-06-15T03:32:19.515Z,14.83
2018-06-15T03:34:47.578Z,16.10
2018-06-15T03:37:15.643Z,12.63
2018-06-15T03:39:43.522Z,12.30
2018-06-15T03:42:11.590Z,16.03
2018-06-15T03:44:39.650Z,13.00
2018-06-15T03:47:07.726Z,14.90
2018-06-15T03:49:35.797Z,15.17
2018-06-15T03:52:03.892Z,18.30
2018-06-15T03:54:31.851Z,17.33
2018-06-15T03:56:59.951Z,16.83
2018-06-15T03:59:28.075Z,13.60
2018-06-15T04:01:56.160Z,15.43
2018-06-15T04:04:24.224Z,17.60
2018-06-15T04:06:52.385Z,15.70
2018-06-15T04:09:20.449Z,14.60
2018-06-15T04:11:48.523Z,14.57
2018-06-15T04:14:16.600Z,13.73
2018-06-15T04:16:44.768Z,14.93
2018-06-15T04:19:12.822Z,12.77
2018-06-15T04:21:40.931Z,14.77
2018-06-15T04:24:09.111Z,14.93
2018-06-15T04:26:37.204Z,12.13
2018-06-15T04:29:05.298Z,14.93
2018-06-15T04:31:33.441Z,14.23
2018-06-15T04:34:01.520Z,15.17
2018-06-15T04:36:29.599Z,15.63
2018-06-15T04:38:57.692Z,15.37
2018-06-15T04:44:00.247Z,18.80
2018-06-15T04:46:28.354Z,20.03
2018-06-15T04:48:56.267Z,19.87
2018-06-15T04:51:24.343Z,23.97
2018-06-15T04:53:52.474Z,21.80
2018-06-15T04:56:20.373Z,24.07
2018-06-15T04:58:48.504Z,27.23
2018-06-15T05:01:16.592Z,21.77
2018-06-15T05:03:44.550Z,16.83
2018-06-15T05:06:12.634Z,15.23
2018-06-15T05:08:40.790Z,15.77
2018-06-15T05:11:08.925Z,17.07
2018-06-15T05:13:37.019Z,15.37
2018-06-15T05:16:05.273Z,14.30
2018-06-15T05:18:33.345Z,17.70
2018-06-15T05:21:01.427Z,14.93
2018-06-15T05:23:29.751Z,16.27
2018-06-15T05:25:57.868Z,17.37
2018-06-15T05:28:25.941Z,14.10
2018-06-15T05:30:54.036Z,12.70
2018-06-15T05:33:22.171Z,14.83
2018-06-15T05:35:50.341Z,18.03
2018-06-15T05:38:18.618Z,16.90
2018-06-15T05:40:46.511Z,13.27
2018-06-15T05:43:14.558Z,15.53
2018-06-15T05:45:42.686Z,14.07
2018-06-15T05:48:10.811Z,14.97
2018-06-15T05:50:38.922Z,15.13
2018-06-15T05:53:07.034Z,14.50
2018-06-15T05:55:35.158Z,13.83
2018-06-15T05:58:03.247Z,15.27
2018-06-15T06:00:31.347Z,13.87
2018-06-15T06:02:59.502Z,16.77
2018-06-15T06:05:27.700Z,13.67
2018-06-15T06:07:55.856Z,14.00
2018-06-15T06:10:24.171Z,13.07
2018-06-15T06:12:52.478Z,15.33
2018-06-15T06:15:20.578Z,15.10
2018-06-15T06:17:48.830Z,12.67
2018-06-15T06:20:16.929Z,13.60
2018-06-15T06:22:44.999Z,14.80
2018-06-15T06:25:13.085Z,14.87
2018-06-15T06:27:41.201Z,14.17
2018-06-15T06:30:09.654Z,13.93
2018-06-15T06:32:37.976Z,16.70
2018-06-15T06:35:06.127Z,13.93
2018-06-15T06:37:35.103Z,16.73
2018-06-15T06:40:03.697Z,11.97
2018-06-15T06:42:32.718Z,13.97
2018-06-15T06:45:00.802Z,12.87
2018-06-15T06:47:29.332Z,13.07
2018-06-15T06:49:59.008Z,12.37
2018-06-15T06:52:27.426Z,11.23
2018-06-15T06:54:57.014Z,11.63
2018-06-15T06:57:25.123Z,11.77
2018-06-15T06:59:53.183Z,12.43
2018-06-15T07:02:21.288Z,17.77
2018-06-15T07:04:49.396Z,14.00
2018-06-15T07:07:17.471Z,11.87
2018-06-15T07:09:45.566Z,12.47
2018-06-15T07:12:13.651Z,12.33
2018-06-15T07:14:41.757Z,13.97
2018-06-15T07:17:09.838Z,13.50
2018-06-15T07:19:37.921Z,14.00
2018-06-15T07:22:05.979Z,15.07
2018-06-15T07:24:34.074Z,11.97
2018-06-15T07:27:02.188Z,12.40
2018-06-15T07:29:30.289Z,11.87
2018-06-15T07:31:58.332Z,15.67
2018-06-15T07:34:26.514Z,16.67
2018-06-15T07:36:54.580Z,13.00
2018-06-15T07:39:22.712Z,14.43
2018-06-15T07:41:50.795Z,11.87
2018-06-15T07:44:18.877Z,15.40
2018-06-15T07:46:46.952Z,12.63
2018-06-15T07:49:15.055Z,14.40
2018-06-15T07:51:43.124Z,13.70
2018-06-15T07:54:11.207Z,17.87
2018-06-15T07:56:39.284Z,13.47
2018-06-15T07:59:07.606Z,12.27
2018-06-15T08:01:35.689Z,17.17
2018-06-15T08:04:06.178Z,12.03
2018-06-15T08:06:34.311Z,15.07
2018-06-15T08:09:02.368Z,15.87
2018-06-15T08:11:30.826Z,14.33
2018-06-15T08:13:59.097Z,14.93
2018-06-15T08:16:26.986Z,13.67
2018-06-15T08:18:55.135Z,12.43
2018-06-15T08:21:23.265Z,11.03
2018-06-15T08:23:51.329Z,13.07
2018-06-15T08:26:19.518Z,10.33
2018-06-15T08:28:47.577Z,10.40
2018-06-15T08:31:15.931Z,12.33
2018-06-15T08:33:44.243Z,14.40
2018-06-15T08:36:12.318Z,10.47
2018-06-15T08:38:40.403Z,9.47
2018-06-15T08:41:08.497Z,12.10
2018-06-15T08:43:36.672Z,9.90
2018-06-15T08:46:04.813Z,10.30
2018-06-15T08:48:32.891Z,11.30
2018-06-15T08:51:00.966Z,9.37
2018-06-15T08:53:29.087Z,9.13
2018-06-15T08:55:57.215Z,12.97
2018-06-15T08:58:25.282Z,11.07
2018-06-15T09:00:53.362Z,10.10
2018-06-15T09:03:21.435Z,9.20
2018-06-15T09:05:49.544Z,11.57
2018-06-15T09:08:17.696Z,10.70
2018-06-15T09:10:45.744Z,8.93
2018-06-15T09:13:13.923Z,7.90
2018-06-15T09:15:42.058Z,9.27
2018-06-15T09:18:10.119Z,7.67
2018-06-15T09:20:38.255Z,12.30
2018-06-15T09:23:06.518Z,7.97
2018-06-15T09:25:34.746Z,9.20
2018-06-15T09:28:02.875Z,10.37
2018-06-15T09:30:30.957Z,9.00
2018-06-15T09:32:59.074Z,8.63
2018-06-15T09:35:27.142Z,10.63
2018-06-15T09:37:55.214Z,6.50
2018-06-15T09:40:23.173Z,9.30
2018-06-15T09:42:51.243Z,8.33
2018-06-15T09:45:19.321Z,6.03
2018-06-15T09:47:47.433Z,7.00
2018-06-15T09:50:15.503Z,7.50
2018-06-15T09:52:43.604Z,8.30
2018-06-15T09:55:11.727Z,9.17
2018-06-15T09:57:39.827Z,5.30
2018-06-15T10:00:07.944Z,6.20
2018-06-15T10:02:36.021Z,4.43
2018-06-15T10:05:04.143Z,6.70
2018-06-15T10:07:32.255Z,6.13
2018-06-15T10:10:00.312Z,5.10
2018-06-15T10:12:28.388Z,6.83
2018-06-15T10:14:56.467Z,6.00
2018-06-15T10:17:24.565Z,4.43
2018-06-15T10:19:52.657Z,5.50
2018-06-15T10:22:20.748Z,4.37
2018-06-15T10:24:48.810Z,5.13
2018-06-15T10:27:16.952Z,5.03
2018-06-15T10:29:45.031Z,4.37
2018-06-15T10:32:13.168Z,4.27
2018-06-15T10:34:41.280Z,4.27
2018-06-15T10:37:09.419Z,4.23
2018-06-15T10:39:37.548Z,4.47
2018-06-15T10:42:05.576Z,9.50
2018-06-15T10:44:33.676Z,3.77
2018-06-15T10:47:01.723Z,3.27
2018-06-15T10:49:29.819Z,4.60
2018-06-15T10:51:57.931Z,2.17
2018-06-15T10:54:26.019Z,2.37
2018-06-15T10:56:54.102Z,2.50
2018-06-15T10:59:22.173Z,1.63
2018-06-15T11:01:50.219Z,3.60
2018-06-15T11:04:18.330Z,3.23
2018-06-15T11:06:46.389Z,4.43
2018-06-15T11:09:14.475Z,4.50
2018-06-15T11:11:42.553Z,5.57
2018-06-15T11:14:10.660Z,7.27
2018-06-15T11:16:38.734Z,6.67
2018-06-15T11:19:06.807Z,4.33
2018-06-15T11:21:34.881Z,5.47
2018-06-15T11:24:03.027Z,6.90
2018-06-15T11:26:31.079Z,12.07
2018-06-15T11:28:59.184Z,4.37
2018-06-15T11:31:27.286Z,3.27
2018-06-15T11:33:55.165Z,4.00
2018-06-15T11:36:23.031Z,5.80
2018-06-15T11:38:51.120Z,4.90
2018-06-15T11:41:19.314Z,5.50
2018-06-15T11:43:47.323Z,6.93
2018-06-15T11:46:15.416Z,10.20
2018-06-15T11:48:43.504Z,5.07
2018-06-15T11:51:11.588Z,5.00
2018-06-15T11:53:39.714Z,5.40
2018-06-15T11:56:07.919Z,6.07
2018-06-15T11:58:35.988Z,5.77
2018-06-15T12:01:04.128Z,5.17
2018-06-15T12:03:32.213Z,4.63
2018-06-15T12:06:00.307Z,6.37
2018-06-15T12:08:28.441Z,4.57
2018-06-15T12:10:56.553Z,4.13
2018-06-15T12:13:24.618Z,3.67
2018-06-15T12:15:52.706Z,7.97
2018-06-15T12:18:20.763Z,4.57
2018-06-15T12:20:48.843Z,4.00
2018-06-15T12:23:16.901Z,5.33
2018-06-15T12:25:44.992Z,7.13
2018-06-15T12:28:13.071Z,11.90
2018-06-15T12:30:41.179Z,4.10
2018-06-15T12:33:09.287Z,5.70
2018-06-15T12:35:37.384Z,4.87
2018-06-15T12:38:05.456Z,5.93
2018-06-15T12:40:33.585Z,6.30
2018-06-15T12:43:01.700Z,4.13
2018-06-15T12:45:29.792Z,4.40
2018-06-15T12:47:57.906Z,4.67
2018-06-15T12:50:26.045Z,6.47
2018-06-15T12:52:54.139Z,5.70
2018-06-15T12:55:22.196Z,4.33
2018-06-15T12:57:50.285Z,5.70
2018-06-15T13:00:18.385Z,4.80
2018-06-15T13:02:46.483Z,6.10
2018-06-15T13:05:14.642Z,4.73
2018-06-15T13:07:42.760Z,6.03
2018-06-15T13:10:10.883Z,8.13
2018-06-15T13:12:38.993Z,6.23
2018-06-15T13:15:06.913Z,4.47
2018-06-15T13:17:35.128Z,4.13
2018-06-15T13:20:03.275Z,5.83
2018-06-15T13:22:31.340Z,7.27
2018-06-15T13:24:59.445Z,5.77
2018-06-15T13:27:27.572Z,7.87
2018-06-15T13:29:55.703Z,5.13
2018-06-15T13:32:23.818Z,7.47
2018-06-15T13:34:51.887Z,5.13
2018-06-15T13:37:20.018Z,5.70
2018-06-15T13:39:48.133Z,5.57
2018-06-15T13:42:16.235Z,6.17
2018-06-15T13:44:44.273Z,7.17
2018-06-15T13:47:12.380Z,6.17
2018-06-15T13:49:40.418Z,4.37
2018-06-15T13:52:08.479Z,6.57
2018-06-15T13:54:36.537Z,6.60
2018-06-15T13:57:04.630Z,7.53
2018-06-15T13:59:32.695Z,5.30
2018-06-15T14:02:00.594Z,6.07
2018-06-15T14:04:28.737Z,5.03
2018-06-15T14:06:56.926Z,5.93
2018-06-15T14:09:25.031Z,7.87
2018-06-15T14:11:53.138Z,4.10
2018-06-15T14:14:21.252Z,3.43
2018-06-15T14:16:49.419Z,6.57
2018-06-15T14:19:17.595Z,4.20
2018-06-15T14:21:45.730Z,5.23
2018-06-15T14:24:13.819Z,4.07
2018-06-15T14:26:41.934Z,7.40
2018-06-15T14:29:10.044Z,4.00
2018-06-15T14:31:38.113Z,5.23
2018-06-15T14:34:06.202Z,4.17
2018-06-15T14:36:34.322Z,4.30
2018-06-15T14:39:02.435Z,5.33
2018-06-15T14:41:30.509Z,4.60
2018-06-15T14:43:58.600Z,5.23
2018-06-15T14:46:26.662Z,4.93
2018-06-15T14:48:54.719Z,5.07
2018-06-15T14:51:22.824Z,4.43
2018-06-15T14:53:50.918Z,4.60
2018-06-15T14:56:19.012Z,7.30
2018-06-15T14:58:47.070Z,4.67
2018-06-15T15:01:15.188Z,4.47
2018-06-15T15:03:43.258Z,4.17
2018-06-15T15:06:11.359Z,6.13
2018-06-15T15:08:39.457Z,3.90
2018-06-15T15:11:07.534Z,6.37
2018-06-15T15:13:35.628Z,5.97
2018-06-15T15:16:03.723Z,9.63
2018-06-15T15:18:31.790Z,7.00
2018-06-15T15:20:59.866Z,3.83
2018-06-15T15:23:28.016Z,7.87
2018-06-15T15:25:56.128Z,7.23
2018-06-15T15:28:24.230Z,4.37
2018-06-15T15:30:52.407Z,5.23
2018-06-15T15:33:20.504Z,4.83
2018-06-15T15:35:48.627Z,6.23
2018-06-15T15:38:16.754Z,4.37
2018-06-15T15:40:44.622Z,6.13
2018-06-15T15:43:12.689Z,5.30
2018-06-15T15:45:40.780Z,7.67
2018-06-15T15:48:08.820Z,5.73
2018-06-15T15:50:36.911Z,5.30
2018-06-15T15:53:05.792Z,4.50
2018-06-15T15:55:33.916Z,7.40
2018-06-15T15:58:01.977Z,5.80
2018-06-15T16:00:30.065Z,4.43
2018-06-15T16:02:58.135Z,5.20
2018-06-15T16:05:26.241Z,3.90
2018-06-15T16:07:54.336Z,6.60
2018-06-15T16:10:22.518Z,4.17
2018-06-15T16:12:50.376Z,5.60
2018-06-15T16:15:18.467Z,6.50
2018-06-15T16:17:46.542Z,6.00
2018-06-15T16:20:14.717Z,6.77
2018-06-15T16:22:42.779Z,4.63
2018-06-15T16:25:10.902Z,5.37
2018-06-15T16:27:38.995Z,4.70
2018-06-15T16:30:07.102Z,5.30
2018-06-15T16:32:35.164Z,6.03
2018-06-15T16:35:03.267Z,3.70
2018-06-15T16:37:31.415Z,6.37
2018-06-15T16:39:59.497Z,4.80
2018-06-15T16:42:27.576Z,5.00
2018-06-15T16:44:55.866Z,3.60
2018-06-15T16:47:23.945Z,3.90
2018-06-15T16:49:52.067Z,4.93
2018-06-15T16:52:20.140Z,6.33
2018-06-15T16:54:48.368Z,4.80
2018-06-15T16:57:16.427Z,5.37
2018-06-15T16:59:44.549Z,5.10
2018-06-15T17:02:12.639Z,6.33
2018-06-15T17:04:40.744Z,7.33
2018-06-15T17:07:08.868Z,5.77
2018-06-15T17:09:37.014Z,3.37
2018-06-15T17:12:05.108Z,5.90
2018-06-15T17:14:33.195Z,6.00
2018-06-15T17:17:01.288Z,5.67
2018-06-15T17:19:29.401Z,5.40
2018-06-15T17:21:57.697Z,6.73
2018-06-15T17:24:25.754Z,7.27
2018-06-15T17:26:53.827Z,6.07
2018-06-15T17:29:21.874Z,5.60
2018-06-15T17:31:49.995Z,3.87
2018-06-15T17:34:18.082Z,5.20
2018-06-15T17:36:46.436Z,7.37
2018-06-15T17:39:14.678Z,5.17
2018-06-15T17:41:47.000Z,4.90
2018-06-15T17:44:15.091Z,5.87
2018-06-15T17:46:43.182Z,6.67
2018-06-15T17:49:11.373Z,6.60
2018-06-15T17:51:39.446Z,8.83
2018-06-15T17:54:07.779Z,5.23
2018-06-15T17:56:35.857Z,5.40
2018-06-15T17:59:03.923Z,7.03
2018-06-15T18:01:32.135Z,4.10
2018-06-15T18:04:00.206Z,7.27
2018-06-15T18:06:28.106Z,9.13
2018-06-15T18:08:56.280Z,5.10
2018-06-15T18:11:24.360Z,4.90
2018-06-15T18:13:52.489Z,4.93
2018-06-15T18:16:20.591Z,6.37
2018-06-15T18:18:48.681Z,5.43
2018-06-15T18:21:16.739Z,5.80
2018-06-15T18:23:44.860Z,6.37
2018-06-15T18:26:12.963Z,4.23
2018-06-15T18:28:41.248Z,7.53
2018-06-15T18:31:09.477Z,6.63
2018-06-15T18:33:37.577Z,5.17
2018-06-15T18:36:05.639Z,6.57
2018-06-15T18:38:33.857Z,8.10
2018-06-15T18:41:01.910Z,4.70
2018-06-15T18:43:30.008Z,5.70
2018-06-15T18:45:58.108Z,5.03
2018-06-15T18:48:26.214Z,5.60
2018-06-15T18:50:54.304Z,7.03
2018-06-15T18:53:22.372Z,8.10
2018-06-15T18:55:50.447Z,5.13
2018-06-15T18:58:18.600Z,5.63
2018-06-15T19:00:46.684Z,4.27
2018-06-15T19:03:14.776Z,4.33
2018-06-15T19:05:43.270Z,5.57
2018-06-15T19:08:11.332Z,6.63
2018-06-15T19:10:39.676Z,7.40
2018-06-15T19:13:07.787Z,5.13
2018-06-15T19:15:35.643Z,5.20
2018-06-15T19:18:03.702Z,5.30
2018-06-15T19:20:31.819Z,7.93
2018-06-15T19:22:59.798Z,5.50
2018-06-15T19:25:27.891Z,4.80
2018-06-15T19:27:55.989Z,4.60
2018-06-15T19:30:24.063Z,4.90
2018-06-15T19:32:52.135Z,4.90
2018-06-15T19:35:20.218Z,7.60
2018-06-15T19:37:48.310Z,4.93
2018-06-15T19:40:16.377Z,7.03
2018-06-15T19:42:44.447Z,6.37
2018-06-15T19:45:12.569Z,5.73
2018-06-15T19:47:40.652Z,8.03
2018-06-15T19:50:08.699Z,7.10
2018-06-15T19:52:36.784Z,9.97
2018-06-15T19:55:04.972Z,6.70
2018-06-15T19:57:33.041Z,8.43
2018-06-15T20:00:01.123Z,6.50
2018-06-15T20:02:29.219Z,6.57
2018-06-15T20:04:57.295Z,8.50
2018-06-15T20:07:25.398Z,6.53
2018-06-15T20:09:53.461Z,8.27
2018-06-15T20:12:21.498Z,9.97
2018-06-15T20:14:49.568Z,7.60
2018-06-15T20:17:17.648Z,6.30
2018-06-15T20:19:45.726Z,6.83
2018-06-15T20:22:13.809Z,9.47
2018-06-15T20:24:41.894Z,7.97
2018-06-15T20:27:09.938Z,6.43
2018-06-15T20:29:38.172Z,6.53
2018-06-15T20:32:06.120Z,6.30
2018-06-15T20:34:34.243Z,7.13
2018-06-15T20:37:02.350Z,8.63
2018-06-15T20:39:30.421Z,5.90
2018-06-15T20:42:01.155Z,6.23
2018-06-15T20:44:29.268Z,7.40
2018-06-15T20:46:57.338Z,7.67
2018-06-15T20:49:25.419Z,7.20
2018-06-15T20:51:53.477Z,7.30
2018-06-15T20:54:21.545Z,9.17
2018-06-15T20:56:49.618Z,11.43
2018-06-15T20:59:17.752Z,8.47
2018-06-15T21:01:45.850Z,8.27
2018-06-15T21:04:13.911Z,11.30
2018-06-15T21:06:42.033Z,11.73
2018-06-15T21:09:10.518Z,7.23
2018-06-15T21:11:38.636Z,7.53
2018-06-15T21:14:06.874Z,7.23
2018-06-15T21:16:34.964Z,7.33
2018-06-15T21:19:03.059Z,7.93
2018-06-15T21:21:31.150Z,9.50
2018-06-15T21:23:59.594Z,7.43
2018-06-15T21:26:27.682Z,6.17
2018-06-15T21:28:56.020Z,6.60
2018-06-15T21:31:23.978Z,7.53
2018-06-15T21:33:52.072Z,7.63
2018-06-15T21:36:20.231Z,7.33
2018-06-15T21:38:48.321Z,8.17
2018-06-15T21:41:16.399Z,10.27
2018-06-15T21:43:44.494Z,8.40
2018-06-15T21:46:12.606Z,8.00
2018-06-15T21:48:40.778Z,7.33
2018-06-15T21:51:08.841Z,7.57
2018-06-15T21:53:36.891Z,10.13
2018-06-15T21:56:04.982Z,9.57
2018-06-15T21:58:33.053Z,10.33
2018-06-15T22:01:01.128Z,7.17
2018-06-15T22:03:29.195Z,7.67
2018-06-15T22:05:57.304Z,8.17
2018-06-15T22:08:25.372Z,7.10
2018-06-15T22:10:53.490Z,8.47
2018-06-15T22:13:21.617Z,8.30
2018-06-15T22:15:49.804Z,10.23
2018-06-15T22:18:17.918Z,7.73
2018-06-15T22:20:45.996Z,11.70
2018-06-15T22:23:14.071Z,8.47
2018-06-15T22:25:42.212Z,9.23
2018-06-15T22:28:10.283Z,9.53
2018-06-15T22:30:38.348Z,9.43
2018-06-15T22:33:06.334Z,12.00
2018-06-15T22:35:34.409Z,8.63
2018-06-15T22:38:02.482Z,7.63
2018-06-15T22:40:30.558Z,10.97
2018-06-15T22:42:58.626Z,7.60
2018-06-15T22:45:26.676Z,7.00
2018-06-15T22:47:54.561Z,8.27
2018-06-15T22:50:22.620Z,8.80
2018-06-15T22:52:50.708Z,9.10
2018-06-15T22:55:18.784Z,7.40
2018-06-15T22:57:46.891Z,8.07
2018-06-15T23:00:16.988Z,6.50
2018-06-15T23:02:45.215Z,7.43
2018-06-15T23:05:13.263Z,7.83
2018-06-15T23:07:41.506Z,8.83
2018-06-15T23:10:09.573Z,8.73
2018-06-15T23:12:37.679Z,7.73
2018-06-15T23:15:05.722Z,9.87
2018-06-15T23:17:33.953Z,8.20
2018-06-15T23:20:02.020Z,8.83
2018-06-15T23:22:30.093Z,12.13
2018-06-15T23:24:58.241Z,10.97
2018-06-15T23:27:26.295Z,7.33
2018-06-15T23:29:54.660Z,8.80
2018-06-15T23:32:22.847Z,7.43
2018-06-15T23:34:51.233Z,8.07
2018-06-15T23:37:19.302Z,9.33
2018-06-15T23:39:47.405Z,7.57
2018-06-15T23:42:15.470Z,8.10
2018-06-15T23:44:43.674Z,7.60
2018-06-15T23:47:11.741Z,8.47
2018-06-15T23:49:39.802Z,7.40
2018-06-15T23:52:07.855Z,9.00
2018-06-15T23:54:35.963Z,9.87
2018-06-15T23:57:04.056Z,11.37
2018-06-15T23:59:32.136Z,9.47
